Time;durP1;ratioP1;P1;durP2;ratioP2;P2;SDS_P1;SDS_P2;PMS_P1;PMS_P2;Temp;Humidity;BMP_temperature;BMP_pressure;BME280_temperature;BME280_humidity;BME280_pressure;Samples;Min_cycle;Max_cycle;Signal;HPM_P1;HPM_P2
2023/08/12 00:00:54;;;;;;;3.67;1.10;;;19.30;99.90;;;18.76;100.00;101505.59;4203816;28;20028;-75
2023/08/12 00:02:55;;;;;;;1.77;1.10;;;19.30;99.90;;;18.79;100.00;101510.56;4203942;28;20483;-74
2023/08/12 00:04:56;;;;;;;2.92;1.15;;;19.30;99.90;;;18.79;100.00;101512.41;4203690;28;20036;-75
2023/08/12 00:06:57;;;;;;;2.92;1.50;;;19.40;99.90;;;18.74;100.00;101507.63;4236329;28;20024;-75
2023/08/12 00:08:58;;;;;;;2.45;1.50;;;19.40;99.90;;;18.79;100.00;101515.91;4203764;28;20025;-75
2023/08/12 00:10:59;;;;;;;2.25;1.60;;;19.40;99.90;;;18.76;100.00;101521.63;4203554;28;20052;-75
2023/08/12 00:13:00;;;;;;;1.75;1.30;;;19.30;99.90;;;18.78;100.00;101514.25;4202556;28;20024;-75
2023/08/12 00:15:02;;;;;;;2.80;1.48;;;19.40;99.90;;;18.78;100.00;101514.25;4203608;28;20032;-75
2023/08/12 00:17:03;;;;;;;2.35;1.67;;;19.30;99.90;;;18.68;100.00;101502.22;4203472;28;20039;-75
2023/08/12 00:19:04;;;;;;;3.40;1.58;;;19.30;99.90;;;18.74;100.00;101518.31;4202443;28;20036;-75
2023/08/12 00:21:09;;;;;;;2.33;1.85;;;19.30;99.90;;;18.71;100.00;101518.72;4203548;28;20025;-75
2023/08/12 00:23:10;;;;;;;3.50;1.63;;;19.30;99.90;;;18.70;100.00;101517.03;4202537;28;20020;-75
2023/08/12 00:25:11;;;;;;;6.13;2.17;;;19.30;99.90;;;18.70;100.00;101517.03;4201290;28;20508;-76
2023/08/12 00:27:12;;;;;;;5.25;2.10;;;19.30;99.90;;;18.67;100.00;101511.25;4202697;28;20134;-75
2023/08/12 00:29:13;;;;;;;4.18;2.00;;;19.30;99.90;;;18.63;100.00;101513.50;4202064;28;20437;-75
2023/08/12 00:31:14;;;;;;;6.70;1.95;;;19.30;99.90;;;18.60;100.00;101511.19;4202270;28;20025;-75
2023/08/12 00:33:15;;;;;;;3.42;1.63;;;19.30;99.90;;;18.63;100.00;101507.31;4203485;28;20024;-75
2023/08/12 00:35:16;;;;;;;2.25;1.88;;;19.20;99.90;;;18.55;100.00;101510.91;4193592;28;20055;-75
2023/08/12 00:37:17;;;;;;;5.07;1.80;;;19.20;99.90;;;18.57;100.00;101510.75;4185524;28;20028;-74
2023/08/12 00:39:17;;;;;;;5.68;2.05;;;19.20;99.90;;;18.55;100.00;101508.25;4201628;28;20502;-75
2023/08/12 00:41:18;;;;;;;4.15;1.80;;;19.20;99.90;;;18.55;100.00;101502.91;4203149;28;20034;-75
2023/08/12 00:43:19;;;;;;;5.80;2.05;;;19.20;99.90;;;18.50;100.00;101504.50;4203014;28;20025;-75
2023/08/12 00:45:20;;;;;;;6.43;1.70;;;19.10;99.90;;;18.45;100.00;101490.84;4235447;28;20058;-75
2023/08/12 00:47:21;;;;;;;4.15;2.78;;;19.10;99.90;;;18.46;100.00;101497.81;4203414;28;20029;-75
2023/08/12 00:49:26;;;;;;;6.85;2.47;;;19.10;99.90;;;18.44;100.00;101491.84;4203356;28;20464;-75
2023/08/12 00:51:28;;;;;;;5.50;2.22;;;19.10;99.90;;;18.43;100.00;101485.69;4203017;28;20104;-75
2023/08/12 00:53:28;;;;;;;3.88;2.03;;;19.10;99.90;;;18.42;100.00;101492.06;4203037;28;20055;-75
2023/08/12 00:55:29;;;;;;;4.50;1.90;;;19.00;99.90;;;18.43;100.00;101498.25;4201620;28;20029;-75
2023/08/12 00:57:30;;;;;;;3.63;1.88;;;19.00;99.90;;;18.40;100.00;101498.63;4219864;28;20051;-75
2023/08/12 00:59:34;;;;;;;3.60;2.08;;;19.00;99.90;;;18.37;100.00;101507.81;4202743;28;20028;-75
2023/08/12 01:01:38;;;;;;;;;;;18.90;99.90;;;18.23;100.00;101489.97;4202314;28;20028;-75
2023/08/12 01:03:39;;;;;;;3.70;1.98;;;18.90;99.90;;;18.19;100.00;101480.69;4201564;28;19991;-75
2023/08/12 01:05:41;;;;;;;11.07;3.15;;;18.90;99.90;;;18.18;100.00;101481.72;4201427;28;20020;-75
2023/08/12 01:07:43;;;;;;;7.10;2.20;;;18.90;99.90;;;18.17;100.00;101488.06;4201326;28;20024;-75
2023/08/12 01:09:44;;;;;;;5.60;2.10;;;18.80;99.90;;;18.21;100.00;101484.00;4200690;28;20031;-75
2023/08/12 01:12:13;;;;;;;5.35;2.28;;;18.80;99.90;;;18.21;100.00;101484.00;4201315;28;20103;-75
2023/08/12 01:15:06;;;;;;;13.20;2.97;;;18.80;99.90;;;18.15;100.00;101484.75;4199491;28;20024;-76
2023/08/12 01:17:11;;;;;;;4.05;2.75;;;18.70;99.90;;;18.12;100.00;101485.97;4135198;28;20145;-75
2023/08/12 01:19:28;;;;;;;6.20;2.78;;;18.70;99.90;;;18.15;100.00;101479.41;4173902;28;20127;-75
2023/08/12 01:21:31;;;;;;;4.95;2.20;;;18.70;99.90;;;18.14;100.00;101470.56;4202565;28;20373;-75
2023/08/12 01:23:32;;;;;;;10.57;2.78;;;18.70;99.90;;;18.11;100.00;101475.44;4201208;28;20029;-75
2023/08/12 01:25:33;;;;;;;5.15;2.13;;;18.70;99.90;;;18.10;100.00;101473.78;4184398;28;20488;-75
2023/08/12 01:27:37;;;;;;;3.10;1.88;;;18.70;99.90;;;18.11;100.00;101472.78;4201135;28;20047;-75
2023/08/12 01:29:46;;;;;;;3.67;1.92;;;18.70;99.90;;;18.13;100.00;101481.41;4202727;28;20028;-75
2023/08/12 01:32:21;;;;;;;6.25;2.70;;;18.70;99.90;;;18.15;100.00;101480.25;4201193;28;20487;-75
2023/08/12 01:35:20;;;;;;;3.85;2.00;;;18.70;99.90;;;18.10;100.00;101476.44;4197795;28;20078;-75
2023/08/12 01:37:28;;;;;;;5.60;2.78;;;18.70;99.90;;;18.05;100.00;101478.88;4183873;28;20457;-75
2023/08/12 01:39:32;;;;;;;5.70;3.28;;;18.70;99.90;;;17.88;100.00;101461.41;4201079;28;20033;-75
2023/08/12 01:41:33;;;;;;;;;;;18.60;99.90;;;17.85;100.00;101489.31;4202253;28;20103;-75
2023/08/12 01:43:34;;;;;;;7.72;3.22;;;18.50;99.90;;;17.72;100.00;101469.59;4201273;28;19915;-75
2023/08/12 01:45:35;;;;;;;6.30;2.53;;;18.40;99.90;;;17.72;100.00;101493.63;4200887;28;20029;-75
2023/08/12 01:47:36;;;;;;;7.90;2.88;;;18.30;99.90;;;17.67;100.00;101486.19;4202233;28;20099;-75
2023/08/12 01:49:37;;;;;;;4.93;2.63;;;18.30;99.90;;;17.61;100.00;101485.06;4202402;28;20028;-75
2023/08/12 01:51:38;;;;;;;5.07;3.50;;;18.30;99.90;;;17.60;100.00;101482.56;4217743;28;20021;-75
2023/08/12 01:53:39;;;;;;;6.75;2.70;;;18.30;99.90;;;17.60;100.00;101480.75;4202101;28;20082;-75
2023/08/12 01:55:45;;;;;;;5.63;2.72;;;18.30;99.90;;;17.69;100.00;101494.81;4200980;28;20076;-75
2023/08/12 01:57:46;;;;;;;7.00;2.80;;;18.30;99.90;;;17.68;100.00;101493.97;4201756;28;20029;-75
2023/08/12 01:59:46;;;;;;;9.68;3.70;;;18.30;99.90;;;17.63;100.00;101491.03;4200907;28;20028;-75
2023/08/12 02:01:47;;;;;;;6.38;2.80;;;18.20;99.90;;;17.55;100.00;101484.97;4201890;28;20498;-75
2023/08/12 02:03:48;;;;;;;6.97;2.75;;;18.20;99.90;;;17.46;100.00;101478.88;4202301;28;20090;-75
2023/08/12 02:05:49;;;;;;;10.88;3.47;;;18.10;99.90;;;17.42;100.00;101487.41;4201738;28;20024;-75
2023/08/12 02:07:50;;;;;;;7.50;3.28;;;18.10;99.90;;;17.37;100.00;101482.63;4202123;28;20028;-75
2023/08/12 02:09:51;;;;;;;6.05;2.92;;;18.00;99.90;;;17.36;100.00;101486.31;4200808;28;20040;-75
2023/08/12 02:11:52;;;;;;;5.20;2.47;;;18.00;99.90;;;17.32;100.00;101490.38;4201964;28;20360;-75
2023/08/12 02:13:52;;;;;;;6.38;3.00;;;18.00;99.90;;;17.22;100.00;101463.13;4202025;28;20029;-75
2023/08/12 02:15:53;;;;;;;8.85;3.13;;;17.90;99.90;;;17.25;100.00;101476.09;4201746;28;20032;-75
2023/08/12 02:17:54;;;;;;;6.43;3.00;;;17.90;99.90;;;17.19;100.00;101475.97;4217819;28;20039;-75
2023/08/12 02:19:55;;;;;;;6.57;3.42;;;17.80;99.90;;;17.03;100.00;101463.63;4201977;28;20051;-76
2023/08/12 02:21:56;;;;;;;9.70;4.10;;;17.80;99.90;;;16.95;100.00;101466.38;4200500;28;20025;-75
2023/08/12 02:23:57;;;;;;;4.78;2.92;;;17.60;99.90;;;16.93;100.00;101473.72;4200648;28;20044;-75
2023/08/12 02:25:58;;;;;;;7.00;2.95;;;17.60;99.90;;;16.84;100.00;101466.81;4201665;28;20025;-75
2023/08/12 02:27:59;;;;;;;8.88;3.33;;;17.50;99.90;;;16.75;100.00;101467.88;4201792;28;20028;-75
2023/08/12 02:30:00;;;;;;;7.03;3.22;;;17.40;99.90;;;16.71;100.00;101461.22;4201897;28;20029;-75
2023/08/12 02:32:01;;;;;;;5.47;2.90;;;17.40;99.90;;;16.62;100.00;101459.63;4201629;28;20040;-75
2023/08/12 02:34:02;;;;;;;5.93;3.55;;;17.30;99.90;;;16.65;100.00;101467.25;4200761;28;20025;-75
2023/08/12 02:36:03;;;;;;;6.15;3.15;;;17.30;99.90;;;16.61;100.00;101465.97;4195835;28;20036;-75
2023/08/12 02:38:04;;;;;;;6.85;2.85;;;17.20;99.90;;;16.53;100.00;101459.66;4200381;28;20064;-75
2023/08/12 02:40:06;;;;;;;6.53;2.70;;;17.20;99.90;;;16.46;100.00;101460.53;4200046;28;20113;-75
2023/08/12 02:42:07;;;;;;;6.55;2.72;;;17.10;99.90;;;16.43;100.00;101460.88;4216941;28;20032;-75
2023/08/12 02:44:07;;;;;;;4.93;2.10;;;17.10;99.90;;;16.37;100.00;101465.09;4201230;28;20039;-75
2023/08/12 02:46:08;;;;;;;4.45;2.38;;;17.00;99.90;;;16.36;100.00;101465.28;4195259;28;20024;-75
2023/08/12 02:48:13;;;;;;;10.93;3.78;;;17.00;99.90;;;16.37;100.00;101464.25;4201498;28;20028;-75
2023/08/12 02:50:13;;;;;;;8.43;3.08;;;17.00;99.90;;;16.45;100.00;101456.22;4200474;28;20025;-75
2023/08/12 02:52:14;;;;;;;4.20;2.83;;;17.00;99.90;;;16.55;100.00;101463.00;4201682;28;20047;-75
2023/08/12 02:54:15;;;;;;;7.47;3.13;;;17.10;99.90;;;16.60;100.00;101449.16;4200201;28;20033;-75
2023/08/12 02:56:16;;;;;;;7.38;3.75;;;17.20;99.90;;;16.69;100.00;101468.59;4200047;28;20514;-75
2023/08/12 02:58:17;;;;;;;7.15;3.17;;;17.20;99.90;;;16.69;100.00;101468.59;4201618;28;20036;-75
2023/08/12 03:00:18;;;;;;;9.80;3.80;;;17.30;99.90;;;16.65;100.00;101467.25;4202457;28;20024;-75
2023/08/12 03:02:19;;;;;;;8.38;3.67;;;17.30;99.90;;;16.63;100.00;101463.97;4205669;28;20040;-75
2023/08/12 03:04:20;;;;;;;7.78;3.53;;;17.30;99.90;;;16.56;100.00;101454.00;4201305;28;20020;-75
2023/08/12 03:06:21;;;;;;;7.28;3.63;;;17.20;99.90;;;16.62;100.00;101465.78;4201445;28;20017;-75
2023/08/12 03:08:22;;;;;;;11.30;4.43;;;17.20;99.90;;;16.62;100.00;101465.78;4200356;28;20032;-75
2023/08/12 03:10:22;;;;;;;8.80;3.75;;;17.20;99.90;;;16.60;100.00;101462.47;4200361;28;20029;-75
2023/08/12 03:12:23;;;;;;;10.57;4.93;;;17.30;99.90;;;16.60;100.00;101470.47;4199996;28;20027;-75
2023/08/12 03:14:24;;;;;;;4.13;3.53;;;17.20;99.90;;;16.48;100.00;101463.88;4199886;28;20029;-75
2023/08/12 03:16:25;;;;;;;8.85;4.40;;;17.10;99.90;;;16.36;100.00;101470.59;4191685;28;20024;-75
2023/08/12 03:18:26;;;;;;;6.03;3.38;;;17.00;99.90;;;16.26;100.00;101470.81;4200145;28;20106;-75
2023/08/12 03:20:27;;;;;;;7.35;4.22;;;16.90;99.90;;;16.20;100.00;101468.84;4200017;28;20020;-75
2023/08/12 03:22:28;;;;;;;9.25;4.55;;;16.90;99.90;;;16.18;100.00;101472.69;4201318;28;20032;-75
2023/08/12 03:24:29;;;;;;;8.25;4.13;;;16.80;99.90;;;16.10;100.00;101470.09;4201308;28;20508;-75
2023/08/12 03:26:29;;;;;;;9.82;4.10;;;16.80;99.90;;;16.05;100.00;101465.28;4183221;28;20078;-75
2023/08/12 03:28:31;;;;;;;8.77;4.13;;;16.70;99.90;;;16.05;100.00;101465.28;4201151;28;20032;-75
2023/08/12 03:30:31;;;;;;;11.57;4.10;;;16.70;99.90;;;15.98;100.00;101456.31;4201349;28;20036;-75
2023/08/12 03:32:32;;;;;;;6.90;4.30;;;16.70;99.90;;;15.92;100.00;101465.81;4200253;28;20396;-75
2023/08/12 03:34:33;;;;;;;9.23;4.70;;;16.60;99.90;;;15.76;100.00;101436.66;4200683;28;20025;-75
2023/08/12 03:36:35;;;;;;;13.00;4.80;;;16.60;99.90;;;15.88;100.00;101464.53;4202976;28;20052;-75
2023/08/12 03:38:35;;;;;;;12.57;4.22;;;16.50;99.90;;;15.79;100.00;101451.44;4203158;28;20578;-74
2023/08/12 03:40:38;;;;;;;6.38;3.63;;;16.50;99.90;;;15.78;100.00;101465.72;4202981;28;20025;-75
2023/08/12 03:42:39;;;;;;;7.78;4.45;;;16.40;99.90;;;15.70;100.00;101455.13;4204073;28;20056;-75
2023/08/12 03:44:40;;;;;;;6.22;3.78;;;16.40;99.90;;;15.70;100.00;101453.28;4202812;28;20035;-74
2023/08/12 03:46:42;;;;;;;7.47;4.00;;;16.40;99.90;;;15.65;100.00;101454.81;4204182;28;20464;-75
2023/08/12 03:48:42;;;;;;;8.10;4.05;;;16.40;99.90;;;15.63;100.00;101462.94;4202958;28;20419;-75
2023/08/12 03:50:45;;;;;;;7.07;3.88;;;16.30;99.90;;;15.56;100.00;101450.53;4204018;28;20033;-75
2023/08/12 03:52:46;;;;;;;23.98;5.80;;;16.20;99.90;;;15.47;100.00;101439.88;4202730;28;20029;-75
2023/08/12 03:54:47;;;;;;;11.70;4.80;;;16.20;99.90;;;15.52;100.00;101446.53;4202773;28;20372;-75
2023/08/12 03:56:48;;;;;;;12.32;5.13;;;16.20;99.90;;;15.49;100.00;101445.88;4203835;28;20036;-75
2023/08/12 03:58:48;;;;;;;13.30;4.78;;;16.20;99.90;;;15.48;100.00;101444.22;4202908;28;20082;-75
2023/08/12 04:00:49;;;;;;;11.95;5.97;;;16.20;99.90;;;15.56;100.00;101442.53;4202499;28;20025;-75
2023/08/12 04:02:50;;;;;;;12.77;4.93;;;16.20;99.90;;;15.65;100.00;101441.50;4203769;28;20035;-75
2023/08/12 04:04:51;;;;;;;9.43;4.53;;;16.30;99.90;;;15.70;100.00;101447.97;4203788;28;20059;-75
2023/08/12 04:06:52;;;;;;;18.27;6.53;;;16.30;99.90;;;15.76;100.00;101455.28;4202627;28;20441;-75
2023/08/12 04:08:53;;;;;;;14.95;5.72;;;16.40;99.90;;;15.79;100.00;101448.75;4203951;28;20050;-75
2023/08/12 04:10:53;;;;;;;12.95;6.35;;;16.40;99.90;;;15.76;100.00;101460.59;4203406;28;20025;-75
2023/08/12 04:12:54;;;;;;;13.63;6.60;;;16.40;99.90;;;15.76;100.00;101467.72;4202760;28;20040;-75
2023/08/12 04:14:55;;;;;;;14.77;6.97;;;16.40;99.90;;;15.80;100.00;101469.88;4198567;28;20036;-75
2023/08/12 04:16:56;;;;;;;13.65;5.95;;;16.40;99.90;;;15.82;100.00;101459.06;4198026;28;20028;-75
2023/08/12 04:18:57;;;;;;;19.95;7.03;;;16.50;99.90;;;15.92;100.00;101459.66;4202158;28;20032;-75
2023/08/12 04:20:58;;;;;;;17.95;6.63;;;16.50;99.90;;;15.91;100.00;101452.72;4203620;28;20027;-75
2023/08/12 04:22:59;;;;;;;17.60;6.47;;;16.50;99.90;;;15.91;100.00;101450.03;4203774;28;20159;-75
2023/08/12 04:25:00;;;;;;;15.40;6.18;;;16.50;99.90;;;15.91;100.00;101448.22;4203441;28;20038;-75
2023/08/12 04:27:01;;;;;;;19.13;6.88;;;16.60;99.90;;;15.89;100.00;101444.06;4201915;28;20040;-75
2023/08/12 04:29:02;;;;;;;17.42;7.15;;;16.60;99.90;;;15.91;100.00;101458.03;4203476;28;20025;-75
2023/08/12 04:31:09;;;;;;;17.58;7.20;;;16.50;99.90;;;15.89;100.00;101460.00;4203446;28;20032;-75
2023/08/12 04:33:10;;;;;;;18.45;6.70;;;16.50;99.90;;;15.84;100.00;101455.22;4203308;28;20020;-75
2023/08/12 04:35:11;;;;;;;12.52;6.38;;;16.50;99.90;;;15.81;100.00;101458.22;4201729;28;20099;-75
2023/08/12 04:37:12;;;;;;;18.88;7.28;;;16.50;99.90;;;15.78;100.00;101452.41;4202081;28;20490;-75
2023/08/12 04:39:13;;;;;;;16.83;5.80;;;16.50;99.90;;;15.76;100.00;101455.28;4203359;28;20078;-75
2023/08/12 04:41:14;;;;;;;17.73;7.07;;;16.40;99.90;;;15.73;100.00;101466.25;4201497;28;20028;-75
2023/08/12 04:43:15;;;;;;;14.02;6.30;;;16.40;99.90;;;15.70;100.00;101463.09;4201680;28;20029;-75
2023/08/12 04:45:16;;;;;;;14.40;6.47;;;16.40;99.90;;;15.66;100.00;101465.25;4203216;28;20021;-75
2023/08/12 04:47:17;;;;;;;15.70;6.82;;;16.30;99.90;;;15.63;100.00;101462.13;4203307;28;20162;-75
2023/08/12 04:49:18;;;;;;;19.42;6.80;;;16.30;99.90;;;15.58;100.00;101462.63;4203117;28;20021;-75
2023/08/12 04:51:19;;;;;;;13.57;5.93;;;16.30;99.90;;;15.53;100.00;101456.97;4203043;28;20025;-75
2023/08/12 04:53:20;;;;;;;14.98;6.43;;;16.20;99.90;;;15.50;100.00;101465.34;4203101;28;20499;-75
2023/08/12 04:55:20;;;;;;;17.98;6.28;;;16.20;99.90;;;15.41;100.00;101461.81;4212237;28;20094;-75
2023/08/12 04:57:21;;;;;;;19.65;6.43;;;16.10;99.90;;;15.33;100.00;101464.50;4196725;28;20027;-75
2023/08/12 04:59:22;;;;;;;19.42;6.68;;;16.00;99.90;;;15.28;100.00;101469.50;4202808;28;20029;-75
2023/08/12 05:01:23;;;;;;;13.75;5.90;;;16.00;99.90;;;15.20;100.00;101458.84;4203264;28;20044;-75
2023/08/12 05:03:24;;;;;;;13.65;5.38;;;15.90;99.90;;;15.18;100.00;101462.69;4203031;28;20022;-75
2023/08/12 05:05:26;;;;;;;16.30;6.80;;;15.90;99.90;;;15.11;100.00;101465.22;4202605;28;20521;-75
2023/08/12 05:07:27;;;;;;;16.70;5.60;;;15.80;99.90;;;15.05;100.00;101457.91;4201416;28;20028;-75
2023/08/12 05:09:28;;;;;;;16.33;5.75;;;15.80;99.90;;;15.04;100.00;101458.88;4218144;28;20025;-75
2023/08/12 05:11:29;;;;;;;9.80;5.20;;;15.80;99.90;;;15.08;100.00;101480.66;4202631;28;20032;-75
2023/08/12 05:13:30;;;;;;;16.17;5.80;;;15.70;99.90;;;15.09;100.00;101480.47;4201454;28;20047;-75
2023/08/12 05:15:31;;;;;;;13.93;4.95;;;15.80;99.90;;;15.14;100.00;101479.97;4208186;28;20069;-75
2023/08/12 05:17:32;;;;;;;13.45;5.25;;;15.80;99.90;;;15.20;100.00;101484.63;4202585;28;20507;-75
2023/08/12 05:19:33;;;;;;;16.55;5.63;;;15.80;99.90;;;15.22;100.00;101488.78;4202653;28;20032;-75
2023/08/12 05:21:33;;;;;;;16.75;6.20;;;15.90;99.90;;;15.23;100.00;101482.44;4202985;28;20016;-75
2023/08/12 05:23:34;;;;;;;19.27;6.25;;;15.90;99.90;;;15.30;100.00;101483.44;4201492;28;20025;-75
2023/08/12 05:25:35;;;;;;;19.52;5.82;;;16.00;99.90;;;15.31;100.00;101482.44;4197782;28;20021;-75
2023/08/12 05:27:36;;;;;;;21.85;6.05;;;16.00;99.90;;;15.34;100.00;101484.78;4184764;28;20060;-76
2023/08/12 05:29:37;;;;;;;21.42;6.35;;;16.00;99.90;;;15.26;100.00;101483.97;4201445;28;20503;-75
2023/08/12 05:31:38;;;;;;;22.10;8.35;;;16.00;99.90;;;15.31;100.00;101489.59;4202413;28;20028;-76
2023/08/12 05:33:39;;;;;;;17.67;5.40;;;16.00;99.90;;;15.31;100.00;101487.75;4234572;28;20024;-75
2023/08/12 05:35:40;;;;;;;17.23;5.75;;;16.00;99.90;;;15.26;100.00;101479.44;4201993;28;20097;-75
2023/08/12 05:37:41;;;;;;;14.82;5.88;;;16.00;99.90;;;15.28;100.00;101482.78;4201129;28;20072;-75
2023/08/12 05:39:42;;;;;;;18.30;5.57;;;15.90;99.90;;;15.24;100.00;101480.63;4202324;28;20040;-75
2023/08/12 05:41:43;;;;;;;14.90;6.10;;;15.90;99.90;;;15.22;100.00;101491.44;4200695;28;20021;-75
2023/08/12 05:43:44;;;;;;;15.32;5.40;;;15.90;99.90;;;15.22;100.00;101491.44;4202313;28;20031;-75
2023/08/12 05:45:44;;;;;;;15.63;5.80;;;15.90;99.90;;;15.18;100.00;101502.53;4209774;28;20020;-75
2023/08/12 05:47:45;;;;;;;12.88;5.38;;;15.80;99.90;;;15.13;100.00;101500.41;4197445;28;20041;-75
2023/08/12 05:49:46;;;;;;;23.55;6.47;;;15.80;99.90;;;15.12;100.00;101493.41;4201974;28;20508;-75
2023/08/12 05:51:47;;;;;;;21.67;6.30;;;15.80;99.90;;;15.11;100.00;101498.91;4202185;28;20021;-75
2023/08/12 05:53:48;;;;;;;15.32;4.80;;;15.80;99.90;;;15.18;100.00;101500.72;4202315;28;20028;-75
2023/08/12 05:55:49;;;;;;;12.70;4.65;;;15.80;99.90;;;15.26;100.00;101500.72;4201573;28;20109;-75
2023/08/12 05:57:50;;;;;;;15.18;5.05;;;15.90;99.90;;;15.38;100.00;101504.69;4184327;28;20033;-75
2023/08/12 05:59:51;;;;;;;11.93;3.95;;;16.00;99.90;;;15.45;100.00;101505.69;4189637;28;20032;-75
2023/08/12 06:01:52;;;;;;;17.02;5.00;;;16.00;99.90;;;15.41;100.00;101509.66;4202260;28;20025;-75
2023/08/12 06:03:53;;;;;;;12.38;4.47;;;16.00;99.90;;;15.42;100.00;101515.81;4201986;28;20029;-74
2023/08/12 06:05:54;;;;;;;15.18;4.57;;;16.00;99.90;;;15.50;100.00;101523.84;4192840;28;20028;-75
2023/08/12 06:07:55;;;;;;;16.05;4.85;;;16.10;99.90;;;15.60;100.00;101513.81;4202071;28;20029;-75
2023/08/12 06:09:55;;;;;;;14.43;5.50;;;16.20;99.90;;;15.61;100.00;101526.13;4201983;28;20032;-75
2023/08/12 06:11:56;;;;;;;13.02;5.25;;;16.30;99.90;;;15.61;100.00;101533.28;4200543;28;20025;-75
2023/08/12 06:13:57;;;;;;;16.17;4.93;;;16.30;99.90;;;15.64;100.00;101531.09;4201853;28;20395;-75
2023/08/12 06:15:58;;;;;;;12.73;4.93;;;16.40;99.90;;;15.70;100.00;101524.28;4200720;28;20021;-75
2023/08/12 06:18:01;;;;;;;18.40;4.82;;;16.40;99.90;;;15.78;100.00;101527.75;4200737;28;20028;-75
2023/08/12 06:20:02;;;;;;;19.90;4.90;;;16.50;99.90;;;15.76;100.00;101528.91;4200918;28;20091;-75
2023/08/12 06:22:03;;;;;;;21.02;5.38;;;16.40;99.90;;;15.74;100.00;101525.59;4234231;28;20081;-75
2023/08/12 06:24:04;;;;;;;16.52;4.53;;;16.40;99.90;;;15.72;100.00;101532.91;4201967;28;20029;-75
2023/08/12 06:26:05;;;;;;;12.77;5.18;;;16.40;99.90;;;15.63;100.00;101523.28;4198283;28;20539;-75
2023/08/12 06:28:08;;;;;;;11.15;3.72;;;16.30;99.90;;;15.60;100.00;101531.59;4201810;28;20037;-75
2023/08/12 06:30:10;;;;;;;12.75;4.72;;;16.30;99.90;;;15.49;100.00;101538.94;4201745;28;20020;-75
2023/08/12 06:32:12;;;;;;;14.07;4.07;;;16.20;99.90;;;15.48;100.00;101537.28;4200954;28;20477;-75
2023/08/12 06:34:13;;;;;;;12.05;4.82;;;16.20;99.90;;;15.52;100.00;101536.94;4201926;28;20078;-75
2023/08/12 06:36:14;;;;;;;12.05;4.45;;;16.20;99.90;;;15.55;100.00;101537.44;4200149;28;20488;-75
2023/08/12 06:38:15;;;;;;;14.40;4.20;;;16.20;99.90;;;15.60;100.00;101536.91;4200428;28;20051;-75
2023/08/12 06:40:16;;;;;;;10.90;4.53;;;16.20;99.90;;;15.57;100.00;101529.28;4201602;28;20470;-75
2023/08/12 06:42:17;;;;;;;15.57;5.45;;;16.20;99.90;;;15.59;100.00;101537.94;4200061;28;20025;-75
2023/08/12 06:44:17;;;;;;;17.35;5.57;;;16.20;99.90;;;15.56;100.00;101544.41;4201763;28;20036;-75
2023/08/12 06:46:18;;;;;;;16.30;5.13;;;16.20;99.90;;;15.56;100.00;101538.28;4191204;28;20510;-75
2023/08/12 06:48:19;;;;;;;13.68;4.53;;;16.20;99.90;;;15.58;100.00;101544.25;4200274;28;20401;-75
2023/08/12 06:50:20;;;;;;;20.38;5.65;;;16.20;99.90;;;15.57;100.00;101535.44;4201798;28;20028;-75
2023/08/12 06:52:21;;;;;;;12.73;4.65;;;16.20;99.90;;;15.60;100.00;101536.91;4200474;28;20032;-75
2023/08/12 06:54:22;;;;;;;12.63;5.07;;;16.30;99.90;;;15.62;100.00;101545.59;4201610;28;20082;-75
2023/08/12 06:56:24;;;;;;;15.32;5.22;;;16.30;99.90;;;15.65;100.00;101542.59;4201212;28;20032;-75
2023/08/12 06:58:25;;;;;;;24.67;5.25;;;16.30;99.90;;;15.72;100.00;101544.38;4201556;28;20442;-75
2023/08/12 07:00:25;;;;;;;17.55;4.70;;;16.30;99.90;;;15.82;100.00;101550.34;4201682;28;20036;-75
2023/08/12 07:02:26;;;;;;;14.90;4.15;;;16.40;99.90;;;15.95;100.00;101540.00;4201645;28;20029;-75
2023/08/12 07:04:27;;;;;;;10.98;4.85;;;16.50;99.90;;;16.19;100.00;101541.72;4201517;28;20032;-75
2023/08/12 07:06:28;;;;;;;17.75;4.90;;;16.70;99.90;;;16.45;100.00;101542.28;4201267;28;20029;-75
2023/08/12 07:08:29;;;;;;;12.63;4.38;;;16.90;99.90;;;16.75;100.00;101542.47;4201893;28;20446;-75
2023/08/12 07:10:30;;;;;;;14.77;4.43;;;17.10;99.90;;;17.10;100.00;101542.72;4204590;28;20021;-75
2023/08/12 07:12:31;;;;;;;16.35;4.95;;;17.40;99.90;;;17.31;100.00;101544.69;4211157;28;20124;-75
2023/08/12 07:14:32;;;;;;;10.60;3.65;;;17.60;99.90;;;17.62;100.00;101549.94;4204751;28;20093;-75
2023/08/12 07:16:33;;;;;;;16.88;4.93;;;17.90;99.90;;;17.69;100.00;101548.19;4203398;28;20512;-75
2023/08/12 07:18:34;;;;;;;15.95;5.20;;;18.10;99.90;;;17.69;100.00;101543.69;4204501;28;20024;-75
2023/08/12 07:20:35;;;;;;;10.77;4.28;;;18.20;99.90;;;17.97;100.00;101559.06;4203576;28;20058;-75
2023/08/12 07:22:36;;;;;;;13.02;4.03;;;18.40;99.90;;;18.24;100.00;101547.72;4204498;28;20028;-75
2023/08/12 07:24:37;;;;;;;12.05;4.82;;;18.60;99.90;;;18.37;100.00;101553.22;4204418;28;20032;-75
2023/08/12 07:26:37;;;;;;;11.05;4.68;;;18.70;99.90;;;18.30;100.00;101546.97;4192356;28;20028;-75
2023/08/12 07:28:38;;;;;;;13.80;3.88;;;18.80;99.90;;;18.07;100.00;101546.28;4203297;28;20028;-75
2023/08/12 07:30:39;;;;;;;12.18;4.13;;;18.70;99.90;;;17.91;100.00;101541.13;4204285;28;20081;-75
2023/08/12 07:32:40;;;;;;;16.00;4.45;;;18.50;99.90;;;17.89;100.00;101548.50;4204315;28;20016;-75
2023/08/12 07:34:41;;;;;;;12.20;5.15;;;18.50;99.90;;;17.76;100.00;101537.63;4204131;28;20040;-75
2023/08/12 07:36:42;;;;;;;12.00;4.05;;;18.40;99.90;;;17.61;100.00;101538.44;4202101;28;20041;-75
2023/08/12 07:38:43;;;;;;;14.30;3.83;;;18.30;99.90;;;17.67;100.00;101543.03;4203122;28;20036;-75
2023/08/12 07:40:43;;;;;;;10.95;3.90;;;18.30;99.90;;;17.75;100.00;101549.28;4202640;28;20039;-75
2023/08/12 07:42:44;;;;;;;10.88;4.00;;;18.40;99.90;;;17.90;100.00;101558.13;4202986;28;20123;-75
2023/08/12 07:44:46;;;;;;;8.70;3.75;;;18.40;99.90;;;18.27;100.00;101555.38;4204002;28;20036;-75
2023/08/12 07:46:46;;;;;;;10.68;4.47;;;18.70;99.90;;;18.48;100.00;101559.94;4202742;28;20028;-75
2023/08/12 07:48:47;;;;;;;18.45;3.90;;;18.90;99.90;;;18.59;100.00;101552.28;4204303;28;20024;-75
2023/08/12 07:50:57;;;;;;;9.75;3.53;;;19.00;99.90;;;18.71;100.00;101558.81;4204233;28;20024;-75
2023/08/12 07:52:58;;;;;;;11.77;3.28;;;19.10;99.90;;;18.85;100.00;101548.22;4203904;28;20055;-75
2023/08/12 07:54:58;;;;;;;10.52;3.38;;;19.30;99.90;;;19.00;100.00;101562.38;4204026;28;20028;-76
2023/08/12 07:56:59;;;;;;;7.72;3.60;;;19.50;99.90;;;19.23;100.00;101555.00;4203659;28;20395;-76
2023/08/12 07:59:00;;;;;;;9.60;3.08;;;19.70;99.90;;;19.28;100.00;101557.91;4203936;28;20037;-76
2023/08/12 08:01:01;;;;;;;9.50;3.72;;;19.70;99.90;;;19.13;100.00;101557.16;4203921;28;20032;-75
2023/08/12 08:03:02;;;;;;;13.60;3.60;;;19.70;99.90;;;18.79;100.00;101564.03;4202794;28;20104;-75
2023/08/12 08:05:03;;;;;;;17.85;3.47;;;19.50;99.90;;;18.64;100.00;101565.91;4203928;28;20085;-75
2023/08/12 08:07:04;;;;;;;11.52;3.72;;;19.30;99.90;;;18.47;100.00;101572.47;4203633;28;20051;-75
2023/08/12 08:09:06;;;;;;;9.93;3.28;;;19.20;99.90;;;18.32;100.00;101568.97;4203666;28;20484;-75
2023/08/12 08:11:06;;;;;;;10.25;3.45;;;19.10;99.90;;;18.17;100.00;101585.03;4203624;28;20132;-75
2023/08/12 08:13:07;;;;;;;7.97;2.40;;;19.00;99.90;;;18.04;100.00;101571.47;4203833;28;20028;-75
2023/08/12 08:15:09;;;;;;;10.02;3.03;;;18.90;99.90;;;18.04;100.00;101576.03;4203841;28;20032;-75
2023/08/12 08:17:09;;;;;;;8.43;2.80;;;18.80;99.90;;;18.00;100.00;101574.72;4203521;28;20054;-75
2023/08/12 08:19:10;;;;;;;10.52;3.33;;;18.70;99.90;;;17.89;100.00;101556.50;4203354;28;20032;-75